createdAt,value
2019-04-14T00:02:49.325Z,98456.72
2019-04-14T00:05:23.188Z,98452.73
2019-04-14T00:07:56.364Z,98453.64
2019-04-14T00:10:31.089Z,98454.20
2019-04-14T00:13:04.821Z,98450.00
2019-04-14T00:15:40.960Z,98446.98
2019-04-14T00:18:11.843Z,98443.66
2019-04-14T00:20:45.225Z,98446.94
2019-04-14T00:23:19.478Z,98445.20
2019-04-14T00:25:54.434Z,98451.61
2019-04-14T00:28:40.388Z,98454.33
2019-04-14T00:31:14.993Z,98449.95
2019-04-14T00:33:49.861Z,98448.07
2019-04-14T00:36:43.782Z,98447.23
2019-04-14T00:39:33.535Z,98454.40
2019-04-14T00:42:24.222Z,98453.34
2019-04-14T00:45:02.819Z,98448.39
2019-04-14T00:47:51.705Z,98444.77
2019-04-14T00:50:39.190Z,98442.90
2019-04-14T00:53:12.553Z,98445.78
2019-04-14T00:55:46.573Z,98448.30
2019-04-14T00:58:19.761Z,98446.94
2019-04-14T01:00:53.807Z,98446.58
2019-04-14T01:03:28.737Z,98446.39
2019-04-14T01:06:07.630Z,98448.17
2019-04-14T01:08:42.576Z,98449.31
2019-04-14T01:11:24.889Z,98441.50
2019-04-14T01:14:01.720Z,98432.27
2019-04-14T01:16:36.442Z,98435.04
2019-04-14T01:19:11.554Z,98438.77
2019-04-14T01:21:48.139Z,98445.69
2019-04-14T01:24:42.441Z,98443.08
2019-04-14T01:27:08.389Z,98446.59
2019-04-14T01:29:42.739Z,98444.56
2019-04-14T01:32:21.826Z,98446.23
2019-04-14T01:35:00.894Z,98448.75
2019-04-14T01:37:33.341Z,98442.83
2019-04-14T01:40:07.978Z,98446.91
2019-04-14T01:42:44.116Z,98447.33
2019-04-14T01:45:25.328Z,98452.80
2019-04-14T01:48:00.009Z,98451.02
2019-04-14T01:50:45.754Z,98453.75
2019-04-14T01:53:29.674Z,98456.67
2019-04-14T01:56:14.676Z,98456.25
2019-04-14T01:58:51.016Z,98460.40
2019-04-14T02:01:30.361Z,98460.04
2019-04-14T02:04:05.072Z,98463.98
2019-04-14T02:06:39.884Z,98466.11
2019-04-14T02:09:14.381Z,98464.91
2019-04-14T02:11:48.851Z,98469.91
2019-04-14T02:14:23.364Z,98469.55
2019-04-14T02:16:59.579Z,98464.23
2019-04-14T02:19:32.747Z,98469.73
2019-04-14T02:22:07.353Z,98468.85
2019-04-14T02:24:41.636Z,98465.77
2019-04-14T02:27:15.164Z,98466.12
2019-04-14T02:29:49.481Z,98465.06
2019-04-14T02:32:54.991Z,98467.08
2019-04-14T02:35:32.694Z,98467.19
2019-04-14T02:38:03.486Z,98466.23
2019-04-14T02:40:55.919Z,98465.06
2019-04-14T02:43:14.539Z,98469.46
2019-04-14T02:45:55.814Z,98467.47
2019-04-14T02:50:55.886Z,98468.05
2019-04-14T02:53:42.167Z,98470.00
2019-04-14T02:58:48.358Z,98470.35
2019-04-14T03:03:54.253Z,98461.77
2019-04-14T03:06:25.670Z,98467.47
2019-04-14T03:09:13.027Z,98461.16
2019-04-14T03:11:43.931Z,98472.16
2019-04-14T03:14:15.618Z,98464.00
2019-04-14T03:20:07.501Z,98461.77
2019-04-14T03:22:49.848Z,98461.37
2019-04-14T03:25:22.562Z,98459.20
2019-04-14T03:28:37.867Z,98463.60
2019-04-14T03:38:58.825Z,98463.59
2019-04-14T03:41:29.175Z,98465.25
2019-04-14T03:44:01.272Z,98455.06
2019-04-14T03:46:45.148Z,98457.45
2019-04-14T03:49:17.776Z,98455.03
2019-04-14T03:51:57.769Z,98454.78
2019-04-14T03:54:20.506Z,98463.61
2019-04-14T03:56:51.673Z,98470.17
2019-04-14T03:59:26.013Z,98466.16
2019-04-14T04:02:00.761Z,98467.42
2019-04-14T04:04:35.782Z,98468.31
2019-04-14T04:07:10.232Z,98471.76
2019-04-14T04:09:58.265Z,98473.67
2019-04-14T04:12:31.937Z,98471.61
2019-04-14T04:15:04.166Z,98467.13
2019-04-14T04:17:54.375Z,98471.06
2019-04-14T04:20:50.153Z,98473.53
2019-04-14T04:23:48.969Z,98469.53
2019-04-14T04:26:30.032Z,98466.46
2019-04-14T04:29:11.228Z,98484.66
2019-04-14T04:32:16.454Z,98481.67
2019-04-14T04:35:21.721Z,98478.14
2019-04-14T04:37:58.569Z,98483.95
2019-04-14T04:40:33.339Z,98483.98
2019-04-14T04:43:07.895Z,98490.34
2019-04-14T04:45:41.023Z,98491.09
2019-04-14T04:48:15.124Z,98505.16
2019-04-14T04:50:49.849Z,98501.05
2019-04-14T04:53:24.789Z,98497.77
2019-04-14T04:55:59.301Z,98506.66
2019-04-14T04:58:32.840Z,98500.40
2019-04-14T05:01:06.176Z,98501.61
2019-04-14T05:03:40.703Z,98507.05
2019-04-14T05:07:12.166Z,98508.09
2019-04-14T05:10:13.087Z,98510.27
2019-04-14T05:12:50.263Z,98514.09
2019-04-14T05:15:42.312Z,98521.49
2019-04-14T05:18:26.841Z,98528.63
2019-04-14T05:20:59.929Z,98532.56
2019-04-14T05:23:34.254Z,98534.59
2019-04-14T05:26:07.658Z,98535.35
2019-04-14T05:28:41.664Z,98544.55
2019-04-14T05:31:16.356Z,98545.67
2019-04-14T05:33:51.163Z,98546.66
2019-04-14T05:36:24.635Z,98555.66
2019-04-14T05:38:58.126Z,98555.11
2019-04-14T05:41:32.906Z,98554.52
2019-04-14T05:44:06.417Z,98555.22
2019-04-14T05:46:40.352Z,98567.73
2019-04-14T05:49:24.473Z,98561.19
2019-04-14T05:51:48.569Z,98562.70
2019-04-14T05:54:21.740Z,98568.31
2019-04-14T05:56:55.789Z,98566.62
2019-04-14T05:59:32.901Z,98570.74
2019-04-14T06:02:07.278Z,98575.87
2019-04-14T06:04:41.770Z,98574.72
2019-04-14T06:07:15.523Z,98577.81
2019-04-14T06:09:48.736Z,98584.70
2019-04-14T06:12:22.271Z,98582.16
2019-04-14T06:14:56.076Z,98580.84
2019-04-14T06:17:34.477Z,98565.11
2019-04-14T06:20:14.017Z,98567.24
2019-04-14T06:22:48.786Z,98568.87
2019-04-14T06:25:21.625Z,98568.74
2019-04-14T06:27:55.136Z,98573.33
2019-04-14T06:30:46.567Z,98570.31
2019-04-14T06:33:42.733Z,98569.80
2019-04-14T06:36:34.800Z,98571.28
2019-04-14T06:39:18.933Z,98585.21
2019-04-14T06:41:52.566Z,98571.88
2019-04-14T06:44:25.330Z,98566.48
2019-04-14T06:46:58.814Z,98571.58
2019-04-14T06:49:34.215Z,98575.83
2019-04-14T06:52:08.510Z,98581.88
2019-04-14T06:54:41.573Z,98581.26
2019-04-14T06:57:13.508Z,98582.94
2019-04-14T06:59:47.559Z,98586.31
2019-04-14T07:02:21.250Z,98586.36
2019-04-14T07:04:57.039Z,98579.90
2019-04-14T07:07:31.049Z,98578.97
2019-04-14T07:10:04.756Z,98585.58
2019-04-14T07:12:38.562Z,98580.05
2019-04-14T07:15:11.913Z,98581.91
2019-04-14T07:17:45.283Z,98584.44
2019-04-14T07:20:18.645Z,98576.48
2019-04-14T07:22:53.939Z,98573.38
2019-04-14T07:25:27.338Z,98571.32
2019-04-14T07:28:00.517Z,98576.53
2019-04-14T07:30:44.219Z,98576.05
2019-04-14T07:33:34.169Z,98581.26
2019-04-14T07:36:45.219Z,98585.92
2019-04-14T07:39:33.861Z,98585.98
2019-04-14T07:42:17.254Z,98582.13
2019-04-14T07:45:04.539Z,98580.22
2019-04-14T07:47:46.912Z,98573.66
2019-04-14T07:50:54.507Z,98569.22
2019-04-14T07:53:45.730Z,98573.05
2019-04-14T07:56:53.731Z,98567.99
2019-04-14T07:59:33.437Z,98565.95
2019-04-14T08:02:25.598Z,98563.06
2019-04-14T08:05:04.483Z,98560.25
2019-04-14T08:07:41.979Z,98563.45
2019-04-14T08:10:16.040Z,98562.38
2019-04-14T08:12:49.982Z,98554.13
2019-04-14T08:15:23.728Z,98549.96
2019-04-14T08:17:57.636Z,98548.14
2019-04-14T08:20:32.891Z,98546.02
2019-04-14T08:23:06.683Z,98545.03
2019-04-14T08:25:41.103Z,98549.47
2019-04-14T08:28:14.732Z,98541.23
2019-04-14T08:30:48.324Z,98540.66
2019-04-14T08:33:22.892Z,98533.64
2019-04-14T08:35:56.946Z,98542.22
2019-04-14T08:38:30.875Z,98540.09
2019-04-14T08:41:04.450Z,98542.45
2019-04-14T08:43:56.255Z,98544.94
2019-04-14T08:46:42.495Z,98537.51
2019-04-14T08:49:22.517Z,98535.19
2019-04-14T08:52:24.369Z,98530.45
2019-04-14T08:55:16.963Z,98538.45
2019-04-14T08:58:05.144Z,98539.46
2019-04-14T09:01:12.278Z,98531.38
2019-04-14T09:03:59.002Z,98530.05
2019-04-14T09:06:54.119Z,98520.53
2019-04-14T09:09:40.600Z,98516.32
2019-04-14T09:12:24.168Z,98519.70
2019-04-14T09:14:57.620Z,98518.98
2019-04-14T09:17:31.162Z,98514.80
2019-04-14T09:20:04.460Z,98513.31
2019-04-14T09:22:37.640Z,98518.98
2019-04-14T09:25:11.321Z,98523.13
2019-04-14T09:27:45.050Z,98516.51
2019-04-14T09:30:19.002Z,98507.48
2019-04-14T09:32:53.630Z,98517.73
2019-04-14T09:35:27.618Z,98505.22
2019-04-14T09:38:01.235Z,98505.84
2019-04-14T09:40:35.047Z,98503.17
2019-04-14T09:43:11.386Z,98512.94
2019-04-14T09:45:45.238Z,98517.75
2019-04-14T09:48:18.659Z,98524.84
2019-04-14T09:51:04.258Z,98516.24
2019-04-14T09:53:29.022Z,98516.23
2019-04-14T09:56:01.450Z,98512.29
2019-04-14T09:58:35.252Z,98513.06
2019-04-14T10:01:10.967Z,98512.94
2019-04-14T10:03:43.689Z,98507.61
2019-04-14T10:06:16.781Z,98503.70
2019-04-14T10:08:51.316Z,98517.36
2019-04-14T10:11:25.965Z,98509.15
2019-04-14T10:13:59.663Z,98510.48
2019-04-14T10:16:33.573Z,98504.40
2019-04-14T10:19:07.245Z,98503.43
2019-04-14T10:21:39.972Z,98506.11
2019-04-14T10:24:12.751Z,98509.13
2019-04-14T10:26:46.251Z,98507.59
2019-04-14T10:29:23.351Z,98501.41
2019-04-14T10:31:56.832Z,98510.59
2019-04-14T10:34:31.680Z,98514.04
2019-04-14T10:37:04.869Z,98518.98
2019-04-14T10:39:37.520Z,98509.44
2019-04-14T10:42:09.187Z,98507.48
2019-04-14T10:44:42.604Z,98515.59
2019-04-14T10:47:15.619Z,98508.55
2019-04-14T10:49:48.475Z,98505.47
2019-04-14T10:52:21.639Z,98512.68
2019-04-14T10:54:55.819Z,98519.89
2019-04-14T10:57:28.920Z,98509.47
2019-04-14T11:00:05.523Z,98507.78
2019-04-14T11:02:39.856Z,98509.47
2019-04-14T11:05:14.744Z,98518.74
2019-04-14T11:07:50.678Z,98503.47
2019-04-14T11:10:25.782Z,98515.89
2019-04-14T11:12:59.460Z,98511.08
2019-04-14T11:15:33.464Z,98509.74
2019-04-14T11:18:08.091Z,98507.91
2019-04-14T11:20:41.837Z,98510.87
2019-04-14T11:23:14.682Z,98515.13
2019-04-14T11:25:48.220Z,98517.64
2019-04-14T11:28:22.940Z,98508.05
2019-04-14T11:30:57.456Z,98508.53
2019-04-14T11:33:48.872Z,98508.23
2019-04-14T11:36:45.497Z,98513.64
2019-04-14T11:39:19.969Z,98510.17
2019-04-14T11:41:55.649Z,98513.61
2019-04-14T11:44:29.266Z,98494.97
2019-04-14T11:47:04.106Z,98515.97
2019-04-14T11:49:38.259Z,98507.37
2019-04-14T11:52:11.291Z,98515.01
2019-04-14T11:54:44.216Z,98514.09
2019-04-14T11:57:15.719Z,98511.86
2019-04-14T12:00:02.381Z,98521.22
2019-04-14T12:02:53.945Z,98520.47
2019-04-14T12:05:36.126Z,98512.41
2019-04-14T12:08:18.111Z,98514.30
2019-04-14T12:10:50.749Z,98521.09
2019-04-14T12:13:22.573Z,98518.23
2019-04-14T12:15:55.443Z,98516.10
2019-04-14T12:18:29.029Z,98511.52
2019-04-14T12:21:02.339Z,98525.30
2019-04-14T12:23:35.406Z,98530.53
2019-04-14T12:26:08.382Z,98531.37
2019-04-14T12:28:42.694Z,98546.55
2019-04-14T12:31:15.944Z,98544.84
2019-04-14T12:33:49.467Z,98537.59
2019-04-14T12:36:23.223Z,98530.61
2019-04-14T12:38:56.617Z,98533.95
2019-04-14T12:41:37.848Z,98544.37
2019-04-14T12:44:28.708Z,98548.58
2019-04-14T12:47:12.581Z,98543.78
2019-04-14T12:49:47.660Z,98541.96
2019-04-14T12:52:23.013Z,98542.25
2019-04-14T12:54:56.503Z,98541.98
2019-04-14T12:57:47.058Z,98539.88
2019-04-14T13:00:27.335Z,98537.91
2019-04-14T13:03:00.940Z,98537.23
2019-04-14T13:05:33.712Z,98531.19
2019-04-14T13:08:06.477Z,98528.31
2019-04-14T13:10:39.639Z,98528.53
2019-04-14T13:13:13.170Z,98529.73
2019-04-14T13:15:46.565Z,98529.11
2019-04-14T13:18:20.114Z,98520.94
2019-04-14T13:20:53.486Z,98523.91
2019-04-14T13:23:27.246Z,98533.06
2019-04-14T13:26:01.065Z,98543.77
2019-04-14T13:28:34.146Z,98541.14
2019-04-14T13:31:07.391Z,98544.77
2019-04-14T13:33:42.458Z,98547.81
2019-04-14T13:36:17.326Z,98549.52
2019-04-14T13:38:51.461Z,98545.09
2019-04-14T13:41:25.872Z,98551.09
2019-04-14T13:44:00.829Z,98546.84
2019-04-14T13:46:34.823Z,98553.17
2019-04-14T13:49:10.398Z,98550.27
2019-04-14T13:51:43.936Z,98562.42
2019-04-14T13:54:18.170Z,98557.26
2019-04-14T13:56:57.300Z,98553.29
2019-04-14T13:59:31.479Z,98568.61
2019-04-14T14:02:04.523Z,98560.48
2019-04-14T14:04:38.107Z,98557.56
2019-04-14T14:07:12.362Z,98566.13
2019-04-14T14:09:46.130Z,98567.26
2019-04-14T14:12:44.267Z,98568.49
2019-04-14T14:15:29.562Z,98568.70
2019-04-14T14:18:22.589Z,98566.73
2019-04-14T14:21:06.942Z,98573.20
2019-04-14T14:23:59.381Z,98571.19
2019-04-14T14:26:34.146Z,98583.52
2019-04-14T14:29:07.767Z,98578.84
2019-04-14T14:31:42.029Z,98581.09
2019-04-14T14:34:15.510Z,98581.01
2019-04-14T14:36:49.302Z,98589.66
2019-04-14T14:39:31.639Z,98594.52
2019-04-14T14:42:05.533Z,98584.80
2019-04-14T14:44:51.785Z,98584.25
2019-04-14T14:47:28.315Z,98579.84
2019-04-14T14:50:10.609Z,98584.25
2019-04-14T14:52:44.722Z,98589.54
2019-04-14T14:55:17.984Z,98598.17
2019-04-14T14:57:49.917Z,98593.86
2019-04-14T15:00:34.927Z,98599.77
2019-04-14T15:03:08.833Z,98610.83
2019-04-14T15:05:42.951Z,98608.09
2019-04-14T15:08:20.615Z,98611.30
2019-04-14T15:10:53.227Z,98620.61
2019-04-14T15:13:27.337Z,98609.69
2019-04-14T15:16:01.814Z,98611.13
2019-04-14T15:18:35.805Z,98612.72
2019-04-14T15:21:09.786Z,98607.80
2019-04-14T15:23:43.827Z,98610.88
2019-04-14T15:26:18.412Z,98619.03
2019-04-14T15:28:51.640Z,98621.27
2019-04-14T15:31:24.555Z,98612.97
2019-04-14T15:33:57.511Z,98618.39
2019-04-14T15:36:31.048Z,98630.35
2019-04-14T15:39:07.596Z,98628.11
2019-04-14T15:41:41.520Z,98627.46
2019-04-14T15:44:15.735Z,98629.46
2019-04-14T15:46:49.567Z,98631.58
2019-04-14T15:49:23.946Z,98633.90
2019-04-14T15:51:57.279Z,98627.69
2019-04-14T15:54:30.329Z,98632.09
2019-04-14T15:57:17.540Z,98639.22
2019-04-14T16:00:11.165Z,98640.76
2019-04-14T16:02:54.533Z,98649.61
2019-04-14T16:05:32.496Z,98650.02
2019-04-14T16:08:22.776Z,98654.42
2019-04-14T16:11:09.818Z,98651.41
2019-04-14T16:14:05.197Z,98650.35
2019-04-14T16:17:00.611Z,98647.36
2019-04-14T16:19:40.223Z,98657.52
2019-04-14T16:22:13.331Z,98661.16
2019-04-14T16:24:54.542Z,98665.20
2019-04-14T16:27:55.432Z,98669.48
2019-04-14T16:30:46.695Z,98668.88
2019-04-14T16:33:50.951Z,98676.69
2019-04-14T16:36:28.100Z,98672.62
2019-04-14T16:39:01.462Z,98671.66
2019-04-14T16:41:34.696Z,98683.02
2019-04-14T16:44:08.077Z,98674.79
2019-04-14T16:46:46.547Z,98680.13
2019-04-14T16:49:20.164Z,98681.98
2019-04-14T16:52:02.493Z,98678.94
2019-04-14T16:54:48.888Z,98686.14
2019-04-14T16:57:45.099Z,98687.84
2019-04-14T17:00:25.676Z,98692.64
2019-04-14T17:02:59.820Z,98690.93
2019-04-14T17:05:41.760Z,98693.38
2019-04-14T17:08:20.414Z,98703.89
2019-04-14T17:10:54.502Z,98698.86
2019-04-14T17:13:31.327Z,98716.08
2019-04-14T17:16:31.738Z,98711.84
2019-04-14T17:19:20.512Z,98712.63
2019-04-14T17:22:19.921Z,98721.28
2019-04-14T17:25:12.523Z,98721.69
2019-04-14T17:28:07.005Z,98727.30
2019-04-14T17:30:45.280Z,98729.02
2019-04-14T17:33:26.969Z,98724.70
2019-04-14T17:36:17.579Z,98727.95
2019-04-14T17:39:08.246Z,98736.61
2019-04-14T17:42:24.360Z,98748.94
2019-04-14T17:45:10.649Z,98746.53
2019-04-14T17:48:12.746Z,98753.88
2019-04-14T17:50:56.560Z,98753.41
2019-04-14T17:53:54.038Z,98759.23
2019-04-14T17:56:42.746Z,98752.52
2019-04-14T17:59:25.512Z,98767.63
2019-04-14T18:02:20.478Z,98771.98
2019-04-14T18:05:11.035Z,98771.73
2019-04-14T18:08:00.744Z,98772.95
2019-04-14T18:10:58.318Z,98780.17
2019-04-14T18:13:45.953Z,98781.14
2019-04-14T18:16:38.722Z,98789.66
2019-04-14T18:19:28.464Z,98793.60
2019-04-14T18:22:01.979Z,98795.39
2019-04-14T18:24:42.084Z,98808.96
2019-04-14T18:27:07.777Z,98810.05
2019-04-14T18:29:52.573Z,98819.64
2019-04-14T18:32:38.793Z,98821.32
2019-04-14T18:35:17.220Z,98825.98
2019-04-14T18:38:16.658Z,98831.26
2019-04-14T18:40:54.839Z,98840.04
2019-04-14T18:43:50.401Z,98838.31
2019-04-14T18:46:51.548Z,98843.92
2019-04-14T18:49:46.323Z,98852.08
2019-04-14T18:52:25.902Z,98859.75
2019-04-14T18:55:17.440Z,98865.71
2019-04-14T18:58:23.410Z,98869.67
2019-04-14T19:01:08.253Z,98872.32
2019-04-14T19:03:42.750Z,98875.36
2019-04-14T19:06:16.588Z,98883.55
2019-04-14T19:08:51.244Z,98882.73
2019-04-14T19:11:58.376Z,98885.03
2019-04-14T19:14:39.276Z,98887.63
2019-04-14T19:17:23.243Z,98887.52
2019-04-14T19:20:02.081Z,98891.47
2019-04-14T19:22:33.654Z,98892.74
2019-04-14T19:25:08.764Z,98889.81
2019-04-14T19:27:43.760Z,98896.27
2019-04-14T19:30:17.265Z,98896.27
2019-04-14T19:32:51.608Z,98887.49
2019-04-14T19:35:26.870Z,98897.71
2019-04-14T19:38:00.665Z,98891.80
2019-04-14T19:40:35.736Z,98900.23
2019-04-14T19:43:22.924Z,98905.38
2019-04-14T19:45:46.035Z,98902.52
2019-04-14T19:48:19.150Z,98899.27
2019-04-14T19:50:53.115Z,98902.75
2019-04-14T19:53:27.677Z,98903.09
2019-04-14T19:56:02.027Z,98905.61
2019-04-14T19:58:35.878Z,98900.34
2019-04-14T20:01:10.653Z,98907.63
2019-04-14T20:03:44.507Z,98917.83
2019-04-14T20:06:18.880Z,98918.30
2019-04-14T20:08:53.079Z,98920.78
2019-04-14T20:11:27.374Z,98919.95
2019-04-14T20:14:00.753Z,98918.63
2019-04-14T20:16:59.281Z,98921.91
2019-04-14T20:19:49.459Z,98924.55
2019-04-14T20:22:41.182Z,98930.61
2019-04-14T20:25:34.092Z,98931.11
2019-04-14T20:28:19.224Z,98928.85
2019-04-14T20:31:18.803Z,98937.84
2019-04-14T20:33:52.300Z,98938.25
2019-04-14T20:36:26.194Z,98940.40
2019-04-14T20:39:01.109Z,98938.97
2019-04-14T20:41:35.079Z,98929.67
2019-04-14T20:44:09.973Z,98934.89
2019-04-14T20:46:43.227Z,98936.00
2019-04-14T20:49:21.123Z,98938.69
2019-04-14T20:51:56.663Z,98935.83
2019-04-14T20:54:31.155Z,98943.05
2019-04-14T20:57:08.232Z,98931.08
2019-04-14T20:59:42.166Z,98935.56
2019-04-14T21:02:53.247Z,98939.90
2019-04-14T21:05:53.101Z,98933.06
2019-04-14T21:08:51.887Z,98930.28
2019-04-14T21:11:33.684Z,98936.60
2019-04-14T21:14:22.720Z,98932.61
2019-04-14T21:17:00.605Z,98933.03
2019-04-14T21:20:08.184Z,98937.09
2019-04-14T21:22:55.398Z,98933.83
2019-04-14T21:25:38.747Z,98938.50
2019-04-14T21:28:30.172Z,98937.78
2019-04-14T21:31:10.261Z,98940.17
2019-04-14T21:34:04.142Z,98936.54
2019-04-14T21:36:52.419Z,98940.53
2019-04-14T21:39:33.998Z,98938.99
2019-04-14T21:42:08.411Z,98945.91
2019-04-14T21:44:43.946Z,98942.92
2019-04-14T21:47:19.215Z,98943.13
2019-04-14T21:49:52.895Z,98943.10
2019-04-14T21:52:41.014Z,98946.73
2019-04-14T21:55:14.675Z,98943.89
2019-04-14T21:58:04.980Z,98940.33
2019-04-14T22:01:55.103Z,98944.92
2019-04-14T22:04:47.865Z,98943.77
2019-04-14T22:07:32.683Z,98954.67
2019-04-14T22:10:27.157Z,98954.89
2019-04-14T22:13:00.712Z,98954.31
2019-04-14T22:15:32.410Z,98956.89
2019-04-14T22:18:06.072Z,98961.38
2019-04-14T22:20:42.618Z,98956.95
2019-04-14T22:23:16.034Z,98962.83
2019-04-14T22:25:47.823Z,98961.41
2019-04-14T22:28:20.864Z,98965.00
2019-04-14T22:30:54.218Z,98965.36
2019-04-14T22:33:27.977Z,98965.00
2019-04-14T22:36:02.025Z,98962.59
2019-04-14T22:38:35.368Z,98964.66
2019-04-14T22:41:08.447Z,98964.86
2019-04-14T22:43:41.223Z,98964.37
2019-04-14T22:46:14.528Z,98960.91
2019-04-14T22:48:48.050Z,98964.69
2019-04-14T22:51:21.764Z,98961.84
2019-04-14T22:53:57.467Z,98962.48
2019-04-14T22:56:39.181Z,98965.08
2019-04-14T22:59:05.907Z,98970.82
2019-04-14T23:01:41.352Z,98971.67
2019-04-14T23:04:36.652Z,98970.36
2019-04-14T23:07:31.560Z,98977.73
2019-04-14T23:10:30.338Z,98980.16
2019-04-14T23:13:28.355Z,98980.73
2019-04-14T23:16:27.706Z,98978.84
2019-04-14T23:19:06.109Z,98983.26
2019-04-14T23:21:51.517Z,98988.85
2019-04-14T23:24:34.444Z,98990.34
2019-04-14T23:27:07.793Z,98990.81
2019-04-14T23:29:41.192Z,98986.00
2019-04-14T23:32:14.381Z,98984.47
2019-04-14T23:34:47.531Z,98984.64
2019-04-14T23:37:20.146Z,98986.97
2019-04-14T23:39:53.355Z,98985.29
2019-04-14T23:42:25.404Z,98983.83
2019-04-14T23:44:58.433Z,98985.29
2019-04-14T23:47:31.632Z,98981.66
2019-04-14T23:50:05.287Z,98973.60
2019-04-14T23:52:38.502Z,98976.34
2019-04-14T23:55:11.749Z,98977.13
2019-04-14T23:57:45.233Z,98974.53
